Weather at Black Diamond/Flying R Ranch Airport

Public forecast

Using degrees Celsius for public forecast. Weather courtesy of forecast.io.

Closest aviation weather report (METAR) to Black Diamond/Flying R Ranch Airport

Closest report is Calgary / Springbank Airport, 28.3 nm (52.3 km) NNW. Retrieved 2022/01/21 11:00 UTC (25 minutes ago):

CYBW 211100Z AUTO 34009KT 9SM OVC081 01/M04 A3002 RMK SLP204

Closest aviation forecast (TAF) to Black Diamond/Flying R Ranch Airport

Forecast is more than 6 hours old.

Closest forecast is Calgary / Springbank Airport, 28.3 nm (52.3 km) NNW. Retrieved 2022-01-21 00:00 UTC (11 hours ago):

TAF CYBW 202340Z 2100/2105 29025G35KT P6SM SCT240 BECMG 2100/2102 30020G30KT RMK FCST BASED ON AUTO OBS NXT FCST BY 211300Z